sensor_id;sensor_type;location;lat;lon;timestamp;temperature;humidity
15638;DHT22;26604;53.596;10.042;2022-08-19T00:01:20;23.60;1.00
15638;DHT22;26604;53.596;10.042;2022-08-19T00:03:47;23.60;1.00
15638;DHT22;26604;53.596;10.042;2022-08-19T00:06:14;23.60;1.00
15638;DHT22;26604;53.596;10.042;2022-08-19T00:08:43;23.60;1.00
15638;DHT22;26604;53.596;10.042;2022-08-19T00:11:10;23.50;1.00
15638;DHT22;26604;53.596;10.042;2022-08-19T00:13:38;23.50;1.00
15638;DHT22;26604;53.596;10.042;2022-08-19T00:16:05;23.50;1.00
15638;DHT22;26604;53.596;10.042;2022-08-19T00:18:33;23.50;1.00
15638;DHT22;26604;53.596;10.042;2022-08-19T00:21:00;23.50;1.00
15638;DHT22;26604;53.596;10.042;2022-08-19T00:23:27;23.50;1.00
15638;DHT22;26604;53.596;10.042;2022-08-19T00:25:56;23.50;1.00
15638;DHT22;26604;53.596;10.042;2022-08-19T00:28:23;23.50;1.00
15638;DHT22;26604;53.596;10.042;2022-08-19T00:30:50;23.50;1.00
15638;DHT22;26604;53.596;10.042;2022-08-19T00:33:18;23.50;1.00
15638;DHT22;26604;53.596;10.042;2022-08-19T00:35:45;23.40;1.00
15638;DHT22;26604;53.596;10.042;2022-08-19T00:38:12;23.40;1.00
15638;DHT22;26604;53.596;10.042;2022-08-19T00:40:40;23.40;1.00
15638;DHT22;26604;53.596;10.042;2022-08-19T00:43:11;23.40;1.00
15638;DHT22;26604;53.596;10.042;2022-08-19T00:45:39;23.40;1.00
15638;DHT22;26604;53.596;10.042;2022-08-19T00:48:09;23.40;1.00
15638;DHT22;26604;53.596;10.042;2022-08-19T00:50:36;23.40;1.00
15638;DHT22;26604;53.596;10.042;2022-08-19T00:53:06;23.40;1.00
15638;DHT22;26604;53.596;10.042;2022-08-19T00:55:33;23.40;1.00
15638;DHT22;26604;53.596;10.042;2022-08-19T00:58:07;23.40;1.00
15638;DHT22;26604;53.596;10.042;2022-08-19T01:00:37;23.40;1.00
15638;DHT22;26604;53.596;10.042;2022-08-19T01:03:07;23.40;1.00
15638;DHT22;26604;53.596;10.042;2022-08-19T01:05:35;23.40;1.00
15638;DHT22;26604;53.596;10.042;2022-08-19T01:08:04;23.40;1.00
15638;DHT22;26604;53.596;10.042;2022-08-19T01:10:35;23.40;1.00
15638;DHT22;26604;53.596;10.042;2022-08-19T01:13:04;23.40;1.00
15638;DHT22;26604;53.596;10.042;2022-08-19T01:15:32;23.40;1.00
15638;DHT22;26604;53.596;10.042;2022-08-19T01:18:06;23.40;1.00
15638;DHT22;26604;53.596;10.042;2022-08-19T01:20:34;23.40;1.00
15638;DHT22;26604;53.596;10.042;2022-08-19T01:23:03;23.30;1.00
15638;DHT22;26604;53.596;10.042;2022-08-19T01:25:33;23.30;1.00
15638;DHT22;26604;53.596;10.042;2022-08-19T01:28:01;23.30;1.00
15638;DHT22;26604;53.596;10.042;2022-08-19T01:30:31;23.30;1.00
15638;DHT22;26604;53.596;10.042;2022-08-19T01:32:59;23.30;1.00
15638;DHT22;26604;53.596;10.042;2022-08-19T01:35:28;23.30;1.00
15638;DHT22;26604;53.596;10.042;2022-08-19T01:37:58;23.30;1.00
15638;DHT22;26604;53.596;10.042;2022-08-19T01:40:31;23.30;1.00
15638;DHT22;26604;53.596;10.042;2022-08-19T01:42:59;23.30;1.00
15638;DHT22;26604;53.596;10.042;2022-08-19T01:45:27;23.30;1.00
15638;DHT22;26604;53.596;10.042;2022-08-19T01:47:56;23.30;1.00
15638;DHT22;26604;53.596;10.042;2022-08-19T01:50:23;23.30;1.00
15638;DHT22;26604;53.596;10.042;2022-08-19T01:52:51;23.30;1.00
15638;DHT22;26604;53.596;10.042;2022-08-19T01:55:20;23.30;1.00
15638;DHT22;26604;53.596;10.042;2022-08-19T01:57:53;23.30;1.00
15638;DHT22;26604;53.596;10.042;2022-08-19T02:00:24;23.30;1.00
15638;DHT22;26604;53.596;10.042;2022-08-19T02:02:51;23.20;1.00
15638;DHT22;26604;53.596;10.042;2022-08-19T02:05:18;23.20;1.00
15638;DHT22;26604;53.596;10.042;2022-08-19T02:07:47;23.20;1.00
15638;DHT22;26604;53.596;10.042;2022-08-19T02:10:17;23.20;1.00
15638;DHT22;26604;53.596;10.042;2022-08-19T02:12:44;23.20;1.00
15638;DHT22;26604;53.596;10.042;2022-08-19T02:15:13;23.20;1.00
15638;DHT22;26604;53.596;10.042;2022-08-19T02:17:40;23.20;1.00
15638;DHT22;26604;53.596;10.042;2022-08-19T02:20:08;23.20;1.00
15638;DHT22;26604;53.596;10.042;2022-08-19T02:22:35;23.20;1.00
15638;DHT22;26604;53.596;10.042;2022-08-19T02:25:02;23.20;1.00
15638;DHT22;26604;53.596;10.042;2022-08-19T02:27:30;23.20;1.00
15638;DHT22;26604;53.596;10.042;2022-08-19T02:29:59;23.20;1.00
15638;DHT22;26604;53.596;10.042;2022-08-19T02:32:27;23.20;1.00
15638;DHT22;26604;53.596;10.042;2022-08-19T02:34:56;23.20;1.00
15638;DHT22;26604;53.596;10.042;2022-08-19T02:37:22;23.20;1.00
15638;DHT22;26604;53.596;10.042;2022-08-19T02:40:07;23.20;1.00
15638;DHT22;26604;53.596;10.042;2022-08-19T02:42:35;23.20;1.00
15638;DHT22;26604;53.596;10.042;2022-08-19T02:45:02;23.10;1.00
15638;DHT22;26604;53.596;10.042;2022-08-19T02:47:30;23.10;1.00
15638;DHT22;26604;53.596;10.042;2022-08-19T02:49:57;23.10;1.00
15638;DHT22;26604;53.596;10.042;2022-08-19T02:52:24;23.10;1.00
15638;DHT22;26604;53.596;10.042;2022-08-19T02:54:52;23.10;1.00
15638;DHT22;26604;53.596;10.042;2022-08-19T02:57:23;23.10;1.00
15638;DHT22;26604;53.596;10.042;2022-08-19T02:59:50;23.10;1.00
15638;DHT22;26604;53.596;10.042;2022-08-19T03:02:17;23.10;1.00
15638;DHT22;26604;53.596;10.042;2022-08-19T03:04:45;23.10;1.00
15638;DHT22;26604;53.596;10.042;2022-08-19T03:07:13;23.10;1.00
15638;DHT22;26604;53.596;10.042;2022-08-19T03:09:41;23.10;1.00
15638;DHT22;26604;53.596;10.042;2022-08-19T03:12:09;23.10;1.00
15638;DHT22;26604;53.596;10.042;2022-08-19T03:14:37;23.10;1.00
15638;DHT22;26604;53.596;10.042;2022-08-19T03:17:04;23.10;1.00
15638;DHT22;26604;53.596;10.042;2022-08-19T03:19:31;23.10;1.00
15638;DHT22;26604;53.596;10.042;2022-08-19T03:22:00;23.10;1.00
15638;DHT22;26604;53.596;10.042;2022-08-19T03:24:28;23.00;1.00
15638;DHT22;26604;53.596;10.042;2022-08-19T03:26:56;23.00;1.00
15638;DHT22;26604;53.596;10.042;2022-08-19T03:29:25;23.00;1.00
15638;DHT22;26604;53.596;10.042;2022-08-19T03:31:53;23.00;1.00
15638;DHT22;26604;53.596;10.042;2022-08-19T03:34:23;23.00;1.00
15638;DHT22;26604;53.596;10.042;2022-08-19T03:36:51;23.00;1.00
15638;DHT22;26604;53.596;10.042;2022-08-19T03:39:21;23.00;1.00
15638;DHT22;26604;53.596;10.042;2022-08-19T03:41:49;23.00;1.00
15638;DHT22;26604;53.596;10.042;2022-08-19T03:44:18;23.00;1.00
15638;DHT22;26604;53.596;10.042;2022-08-19T03:46:48;23.00;1.00
15638;DHT22;26604;53.596;10.042;2022-08-19T03:49:15;23.00;1.00
15638;DHT22;26604;53.596;10.042;2022-08-19T03:51:43;23.00;1.00
15638;DHT22;26604;53.596;10.042;2022-08-19T03:54:14;23.00;1.00
15638;DHT22;26604;53.596;10.042;2022-08-19T03:56:44;23.00;1.00
15638;DHT22;26604;53.596;10.042;2022-08-19T03:59:13;23.00;1.00
15638;DHT22;26604;53.596;10.042;2022-08-19T04:01:40;23.00;1.00
15638;DHT22;26604;53.596;10.042;2022-08-19T04:04:08;23.00;1.00
15638;DHT22;26604;53.596;10.042;2022-08-19T04:06:36;23.00;1.00
15638;DHT22;26604;53.596;10.042;2022-08-19T04:09:07;22.90;1.00
15638;DHT22;26604;53.596;10.042;2022-08-19T04:11:37;22.90;1.00
15638;DHT22;26604;53.596;10.042;2022-08-19T04:14:09;22.90;1.00
15638;DHT22;26604;53.596;10.042;2022-08-19T04:16:37;22.90;1.00
15638;DHT22;26604;53.596;10.042;2022-08-19T04:19:05;23.00;1.00
15638;DHT22;26604;53.596;10.042;2022-08-19T04:21:33;22.90;1.00
15638;DHT22;26604;53.596;10.042;2022-08-19T04:24:00;22.90;1.00
15638;DHT22;26604;53.596;10.042;2022-08-19T04:26:29;22.90;1.00
15638;DHT22;26604;53.596;10.042;2022-08-19T04:28:57;22.90;1.00
15638;DHT22;26604;53.596;10.042;2022-08-19T04:31:27;22.90;1.00
15638;DHT22;26604;53.596;10.042;2022-08-19T04:33:55;22.90;1.00
15638;DHT22;26604;53.596;10.042;2022-08-19T04:36:27;22.90;1.00
15638;DHT22;26604;53.596;10.042;2022-08-19T04:38:55;22.90;1.00
15638;DHT22;26604;53.596;10.042;2022-08-19T04:41:22;22.90;1.00
15638;DHT22;26604;53.596;10.042;2022-08-19T04:44:07;22.90;1.00
15638;DHT22;26604;53.596;10.042;2022-08-19T04:46:35;22.90;1.00
15638;DHT22;26604;53.596;10.042;2022-08-19T04:49:04;22.90;1.00
15638;DHT22;26604;53.596;10.042;2022-08-19T04:51:32;22.90;1.00
15638;DHT22;26604;53.596;10.042;2022-08-19T04:54:01;22.90;1.00
15638;DHT22;26604;53.596;10.042;2022-08-19T04:56:28;22.90;1.00
15638;DHT22;26604;53.596;10.042;2022-08-19T04:58:56;22.90;1.00
15638;DHT22;26604;53.596;10.042;2022-08-19T05:01:25;22.90;1.00
15638;DHT22;26604;53.596;10.042;2022-08-19T05:03:53;22.90;1.00
15638;DHT22;26604;53.596;10.042;2022-08-19T05:06:22;22.90;1.00
15638;DHT22;26604;53.596;10.042;2022-08-19T05:08:51;22.80;1.00
15638;DHT22;26604;53.596;10.042;2022-08-19T05:11:19;22.80;1.00
15638;DHT22;26604;53.596;10.042;2022-08-19T05:13:47;22.90;1.00
15638;DHT22;26604;53.596;10.042;2022-08-19T05:16:16;23.00;1.00
15638;DHT22;26604;53.596;10.042;2022-08-19T05:18:44;23.10;1.00
15638;DHT22;26604;53.596;10.042;2022-08-19T05:21:30;23.10;1.00
15638;DHT22;26604;53.596;10.042;2022-08-19T05:24:15;23.10;1.00
15638;DHT22;26604;53.596;10.042;2022-08-19T05:26:44;23.10;1.00
15638;DHT22;26604;53.596;10.042;2022-08-19T05:29:12;23.00;1.00
15638;DHT22;26604;53.596;10.042;2022-08-19T05:31:40;23.00;1.00
15638;DHT22;26604;53.596;10.042;2022-08-19T05:34:07;23.00;1.00
15638;DHT22;26604;53.596;10.042;2022-08-19T05:36:39;22.90;1.00
15638;DHT22;26604;53.596;10.042;2022-08-19T05:39:07;22.90;1.00
15638;DHT22;26604;53.596;10.042;2022-08-19T05:41:34;22.90;1.00
15638;DHT22;26604;53.596;10.042;2022-08-19T05:44:03;22.90;1.00
15638;DHT22;26604;53.596;10.042;2022-08-19T05:46:32;22.90;1.00
15638;DHT22;26604;53.596;10.042;2022-08-19T05:49:00;22.80;1.00
15638;DHT22;26604;53.596;10.042;2022-08-19T05:51:27;22.80;1.00
15638;DHT22;26604;53.596;10.042;2022-08-19T05:53:55;22.80;1.00
15638;DHT22;26604;53.596;10.042;2022-08-19T05:56:23;22.80;1.00
15638;DHT22;26604;53.596;10.042;2022-08-19T05:58:50;22.80;1.00
15638;DHT22;26604;53.596;10.042;2022-08-19T06:01:18;22.80;1.00
15638;DHT22;26604;53.596;10.042;2022-08-19T06:03:45;22.80;1.00
15638;DHT22;26604;53.596;10.042;2022-08-19T06:06:15;22.80;1.00
15638;DHT22;26604;53.596;10.042;2022-08-19T06:08:42;22.80;1.00
15638;DHT22;26604;53.596;10.042;2022-08-19T06:11:19;22.80;1.00
15638;DHT22;26604;53.596;10.042;2022-08-19T06:13:48;22.70;1.00
15638;DHT22;26604;53.596;10.042;2022-08-19T06:16:16;22.70;1.00
15638;DHT22;26604;53.596;10.042;2022-08-19T06:18:48;22.70;1.00
15638;DHT22;26604;53.596;10.042;2022-08-19T06:21:17;22.70;1.00
15638;DHT22;26604;53.596;10.042;2022-08-19T06:23:44;22.70;1.00
15638;DHT22;26604;53.596;10.042;2022-08-19T06:26:12;22.70;1.00
15638;DHT22;26604;53.596;10.042;2022-08-19T06:28:40;22.70;1.00
15638;DHT22;26604;53.596;10.042;2022-08-19T06:31:08;22.80;1.00
15638;DHT22;26604;53.596;10.042;2022-08-19T06:33:35;22.80;1.00
15638;DHT22;26604;53.596;10.042;2022-08-19T06:36:03;22.80;1.00
15638;DHT22;26604;53.596;10.042;2022-08-19T06:38:31;22.80;1.00
15638;DHT22;26604;53.596;10.042;2022-08-19T06:41:01;22.80;1.00
15638;DHT22;26604;53.596;10.042;2022-08-19T06:43:28;22.80;1.00
15638;DHT22;26604;53.596;10.042;2022-08-19T06:45:56;22.80;1.00
15638;DHT22;26604;53.596;10.042;2022-08-19T06:48:25;22.90;1.00
15638;DHT22;26604;53.596;10.042;2022-08-19T06:50:51;22.90;1.00
15638;DHT22;26604;53.596;10.042;2022-08-19T06:53:18;22.90;1.00
15638;DHT22;26604;53.596;10.042;2022-08-19T06:55:45;23.00;1.00
15638;DHT22;26604;53.596;10.042;2022-08-19T06:58:12;23.10;1.00
15638;DHT22;26604;53.596;10.042;2022-08-19T07:00:39;23.10;1.00
15638;DHT22;26604;53.596;10.042;2022-08-19T07:03:08;23.20;1.00
15638;DHT22;26604;53.596;10.042;2022-08-19T07:05:39;23.30;1.00
15638;DHT22;26604;53.596;10.042;2022-08-19T07:08:06;23.30;1.00
15638;DHT22;26604;53.596;10.042;2022-08-19T07:10:33;23.30;1.00
15638;DHT22;26604;53.596;10.042;2022-08-19T07:13:02;23.30;1.00
15638;DHT22;26604;53.596;10.042;2022-08-19T07:15:29;23.30;1.00
15638;DHT22;26604;53.596;10.042;2022-08-19T07:17:56;23.30;1.00
15638;DHT22;26604;53.596;10.042;2022-08-19T07:20:24;23.20;1.00
15638;DHT22;26604;53.596;10.042;2022-08-19T07:22:51;23.20;1.00
15638;DHT22;26604;53.596;10.042;2022-08-19T07:25:18;23.20;1.00
15638;DHT22;26604;53.596;10.042;2022-08-19T07:27:48;23.20;1.00
15638;DHT22;26604;53.596;10.042;2022-08-19T07:30:15;23.20;1.00
15638;DHT22;26604;53.596;10.042;2022-08-19T07:32:42;23.20;1.00
15638;DHT22;26604;53.596;10.042;2022-08-19T07:35:10;23.10;1.00
15638;DHT22;26604;53.596;10.042;2022-08-19T07:37:38;23.10;1.00
15638;DHT22;26604;53.596;10.042;2022-08-19T07:40:10;23.10;1.00
15638;DHT22;26604;53.596;10.042;2022-08-19T07:42:38;23.10;1.00
15638;DHT22;26604;53.596;10.042;2022-08-19T07:45:06;23.10;1.00
15638;DHT22;26604;53.596;10.042;2022-08-19T07:47:33;23.10;1.00
15638;DHT22;26604;53.596;10.042;2022-08-19T07:50:00;23.10;1.00
15638;DHT22;26604;53.596;10.042;2022-08-19T07:52:30;23.10;1.00
15638;DHT22;26604;53.596;10.042;2022-08-19T07:54:58;23.10;1.00
15638;DHT22;26604;53.596;10.042;2022-08-19T07:57:29;23.10;1.00
15638;DHT22;26604;53.596;10.042;2022-08-19T07:59:55;23.10;1.00
15638;DHT22;26604;53.596;10.042;2022-08-19T08:02:22;23.10;1.00
15638;DHT22;26604;53.596;10.042;2022-08-19T08:04:49;23.10;1.00
15638;DHT22;26604;53.596;10.042;2022-08-19T08:07:33;23.20;1.00
15638;DHT22;26604;53.596;10.042;2022-08-19T08:10:19;23.10;1.00
15638;DHT22;26604;53.596;10.042;2022-08-19T08:12:46;23.20;1.00
15638;DHT22;26604;53.596;10.042;2022-08-19T08:15:15;23.10;1.00
15638;DHT22;26604;53.596;10.042;2022-08-19T08:17:44;23.20;1.00
15638;DHT22;26604;53.596;10.042;2022-08-19T08:20:12;23.20;1.00
15638;DHT22;26604;53.596;10.042;2022-08-19T08:22:43;23.20;1.00
15638;DHT22;26604;53.596;10.042;2022-08-19T08:25:29;23.20;1.00
15638;DHT22;26604;53.596;10.042;2022-08-19T08:27:57;23.20;1.00
15638;DHT22;26604;53.596;10.042;2022-08-19T08:30:27;23.20;1.00
15638;DHT22;26604;53.596;10.042;2022-08-19T08:32:55;23.20;1.00
15638;DHT22;26604;53.596;10.042;2022-08-19T08:35:23;23.20;1.00
15638;DHT22;26604;53.596;10.042;2022-08-19T08:37:52;23.20;1.00
15638;DHT22;26604;53.596;10.042;2022-08-19T08:40:22;23.20;1.00
15638;DHT22;26604;53.596;10.042;2022-08-19T08:43:06;23.20;1.00
15638;DHT22;26604;53.596;10.042;2022-08-19T08:45:35;23.20;1.00
15638;DHT22;26604;53.596;10.042;2022-08-19T08:48:13;23.20;1.00
15638;DHT22;26604;53.596;10.042;2022-08-19T08:50:43;23.20;1.00
15638;DHT22;26604;53.596;10.042;2022-08-19T08:53:14;23.20;1.00
15638;DHT22;26604;53.596;10.042;2022-08-19T08:55:43;23.20;1.00
15638;DHT22;26604;53.596;10.042;2022-08-19T08:58:16;23.20;1.00
15638;DHT22;26604;53.596;10.042;2022-08-19T09:00:47;23.20;1.00
15638;DHT22;26604;53.596;10.042;2022-08-19T09:03:18;23.20;1.00
15638;DHT22;26604;53.596;10.042;2022-08-19T09:05:53;23.20;1.00
15638;DHT22;26604;53.596;10.042;2022-08-19T09:08:33;23.20;1.00
15638;DHT22;26604;53.596;10.042;2022-08-19T09:11:07;23.20;1.00
15638;DHT22;26604;53.596;10.042;2022-08-19T09:13:42;23.20;1.00
15638;DHT22;26604;53.596;10.042;2022-08-19T09:16:16;23.20;1.00
15638;DHT22;26604;53.596;10.042;2022-08-19T09:18:45;23.20;1.00
15638;DHT22;26604;53.596;10.042;2022-08-19T09:21:13;23.20;1.00
15638;DHT22;26604;53.596;10.042;2022-08-19T09:23:40;23.20;1.00
15638;DHT22;26604;53.596;10.042;2022-08-19T09:26:09;23.20;1.00
15638;DHT22;26604;53.596;10.042;2022-08-19T09:28:40;23.20;1.00
15638;DHT22;26604;53.596;10.042;2022-08-19T09:31:09;23.20;1.00
15638;DHT22;26604;53.596;10.042;2022-08-19T09:33:36;23.20;1.00
15638;DHT22;26604;53.596;10.042;2022-08-19T09:36:05;23.20;1.00
15638;DHT22;26604;53.596;10.042;2022-08-19T09:38:32;23.20;1.00
15638;DHT22;26604;53.596;10.042;2022-08-19T09:41:03;23.20;1.00
15638;DHT22;26604;53.596;10.042;2022-08-19T09:43:31;23.30;1.00
15638;DHT22;26604;53.596;10.042;2022-08-19T09:46:00;23.20;1.00
15638;DHT22;26604;53.596;10.042;2022-08-19T09:48:27;23.30;1.00
15638;DHT22;26604;53.596;10.042;2022-08-19T09:50:54;23.30;1.00
15638;DHT22;26604;53.596;10.042;2022-08-19T09:53:21;23.30;1.00
15638;DHT22;26604;53.596;10.042;2022-08-19T09:55:48;23.30;1.00
15638;DHT22;26604;53.596;10.042;2022-08-19T09:58:16;23.30;1.00
15638;DHT22;26604;53.596;10.042;2022-08-19T10:00:43;23.30;1.00
15638;DHT22;26604;53.596;10.042;2022-08-19T10:03:12;23.30;1.00
15638;DHT22;26604;53.596;10.042;2022-08-19T10:05:39;23.30;1.00
15638;DHT22;26604;53.596;10.042;2022-08-19T10:08:17;23.30;1.00
15638;DHT22;26604;53.596;10.042;2022-08-19T10:10:44;23.30;1.00
15638;DHT22;26604;53.596;10.042;2022-08-19T10:13:13;23.30;1.00
15638;DHT22;26604;53.596;10.042;2022-08-19T10:15:40;23.30;1.00
15638;DHT22;26604;53.596;10.042;2022-08-19T10:18:07;23.30;1.00
15638;DHT22;26604;53.596;10.042;2022-08-19T10:20:35;23.30;1.00
15638;DHT22;26604;53.596;10.042;2022-08-19T10:23:02;23.30;1.00
15638;DHT22;26604;53.596;10.042;2022-08-19T10:25:29;23.40;1.00
15638;DHT22;26604;53.596;10.042;2022-08-19T10:27:59;23.30;1.00
15638;DHT22;26604;53.596;10.042;2022-08-19T10:30:26;23.40;1.00
15638;DHT22;26604;53.596;10.042;2022-08-19T10:32:53;23.40;1.00
15638;DHT22;26604;53.596;10.042;2022-08-19T10:35:20;23.40;1.00
15638;DHT22;26604;53.596;10.042;2022-08-19T10:37:48;23.40;1.00
15638;DHT22;26604;53.596;10.042;2022-08-19T10:40:15;23.40;1.00
15638;DHT22;26604;53.596;10.042;2022-08-19T10:42:42;23.40;1.00
15638;DHT22;26604;53.596;10.042;2022-08-19T10:45:10;23.40;1.00
15638;DHT22;26604;53.596;10.042;2022-08-19T10:47:37;23.40;1.00
15638;DHT22;26604;53.596;10.042;2022-08-19T10:50:05;23.40;1.00
15638;DHT22;26604;53.596;10.042;2022-08-19T10:52:50;23.40;1.00
15638;DHT22;26604;53.596;10.042;2022-08-19T10:55:19;23.40;1.00
15638;DHT22;26604;53.596;10.042;2022-08-19T10:58:06;23.40;1.00
15638;DHT22;26604;53.596;10.042;2022-08-19T11:00:36;23.40;1.00
15638;DHT22;26604;53.596;10.042;2022-08-19T11:03:03;23.40;1.00
15638;DHT22;26604;53.596;10.042;2022-08-19T11:05:30;23.40;1.00
15638;DHT22;26604;53.596;10.042;2022-08-19T11:07:58;23.40;1.00
15638;DHT22;26604;53.596;10.042;2022-08-19T11:10:25;23.40;1.00
15638;DHT22;26604;53.596;10.042;2022-08-19T11:12:52;23.40;1.00
15638;DHT22;26604;53.596;10.042;2022-08-19T11:15:20;23.40;1.00
15638;DHT22;26604;53.596;10.042;2022-08-19T11:17:47;23.40;1.00
15638;DHT22;26604;53.596;10.042;2022-08-19T11:20:14;23.40;1.00
15638;DHT22;26604;53.596;10.042;2022-08-19T11:22:41;23.40;1.00
15638;DHT22;26604;53.596;10.042;2022-08-19T11:25:10;23.40;1.00
15638;DHT22;26604;53.596;10.042;2022-08-19T11:27:39;23.40;1.00
15638;DHT22;26604;53.596;10.042;2022-08-19T11:30:08;23.40;1.00
15638;DHT22;26604;53.596;10.042;2022-08-19T11:32:36;23.40;1.00
15638;DHT22;26604;53.596;10.042;2022-08-19T11:35:03;23.50;1.00
15638;DHT22;26604;53.596;10.042;2022-08-19T11:37:30;23.50;1.00
15638;DHT22;26604;53.596;10.042;2022-08-19T11:39:57;23.50;1.00
15638;DHT22;26604;53.596;10.042;2022-08-19T11:42:25;23.50;1.00
15638;DHT22;26604;53.596;10.042;2022-08-19T11:45:18;23.50;1.00
15638;DHT22;26604;53.596;10.042;2022-08-19T11:47:45;23.50;1.00
15638;DHT22;26604;53.596;10.042;2022-08-19T11:50:12;23.50;1.00
15638;DHT22;26604;53.596;10.042;2022-08-19T11:52:41;23.50;1.00
15638;DHT22;26604;53.596;10.042;2022-08-19T11:55:10;23.50;1.00
15638;DHT22;26604;53.596;10.042;2022-08-19T11:57:38;23.50;1.00
15638;DHT22;26604;53.596;10.042;2022-08-19T12:00:07;23.50;1.00
15638;DHT22;26604;53.596;10.042;2022-08-19T12:02:35;23.50;1.00
15638;DHT22;26604;53.596;10.042;2022-08-19T12:05:02;23.50;1.00
15638;DHT22;26604;53.596;10.042;2022-08-19T12:07:29;23.50;1.00
15638;DHT22;26604;53.596;10.042;2022-08-19T12:09:58;23.50;1.00
15638;DHT22;26604;53.596;10.042;2022-08-19T12:12:26;23.50;1.00
15638;DHT22;26604;53.596;10.042;2022-08-19T12:14:54;23.50;1.00
15638;DHT22;26604;53.596;10.042;2022-08-19T12:17:24;23.60;1.00
15638;DHT22;26604;53.596;10.042;2022-08-19T12:19:51;23.60;1.00
15638;DHT22;26604;53.596;10.042;2022-08-19T12:22:18;23.60;1.00
15638;DHT22;26604;53.596;10.042;2022-08-19T12:24:46;23.50;1.00
15638;DHT22;26604;53.596;10.042;2022-08-19T12:27:13;23.60;1.00
15638;DHT22;26604;53.596;10.042;2022-08-19T12:29:40;23.60;1.00
15638;DHT22;26604;53.596;10.042;2022-08-19T12:32:08;23.60;1.00
15638;DHT22;26604;53.596;10.042;2022-08-19T12:34:35;23.60;1.00
15638;DHT22;26604;53.596;10.042;2022-08-19T12:37:05;23.60;1.00
15638;DHT22;26604;53.596;10.042;2022-08-19T12:39:34;23.70;1.00
15638;DHT22;26604;53.596;10.042;2022-08-19T12:42:02;23.70;1.00
15638;DHT22;26604;53.596;10.042;2022-08-19T12:44:29;23.70;1.00
15638;DHT22;26604;53.596;10.042;2022-08-19T12:46:57;23.70;1.00
15638;DHT22;26604;53.596;10.042;2022-08-19T12:49:27;23.70;1.00
15638;DHT22;26604;53.596;10.042;2022-08-19T12:51:54;23.70;1.00
15638;DHT22;26604;53.596;10.042;2022-08-19T12:54:21;23.80;1.00
15638;DHT22;26604;53.596;10.042;2022-08-19T12:56:48;23.80;1.00
15638;DHT22;26604;53.596;10.042;2022-08-19T12:59:15;23.90;1.00
15638;DHT22;26604;53.596;10.042;2022-08-19T13:01:43;23.80;1.00
15638;DHT22;26604;53.596;10.042;2022-08-19T13:04:11;23.90;1.00
15638;DHT22;26604;53.596;10.042;2022-08-19T13:06:39;23.90;1.00
15638;DHT22;26604;53.596;10.042;2022-08-19T13:09:06;24.00;1.00
15638;DHT22;26604;53.596;10.042;2022-08-19T13:11:33;24.00;1.00
15638;DHT22;26604;53.596;10.042;2022-08-19T13:14:01;24.10;1.00
15638;DHT22;26604;53.596;10.042;2022-08-19T13:16:28;24.00;1.00
15638;DHT22;26604;53.596;10.042;2022-08-19T13:18:57;24.00;1.00
15638;DHT22;26604;53.596;10.042;2022-08-19T13:21:26;24.00;1.00
15638;DHT22;26604;53.596;10.042;2022-08-19T13:23:57;24.00;1.00
15638;DHT22;26604;53.596;10.042;2022-08-19T13:26:24;23.90;1.00
15638;DHT22;26604;53.596;10.042;2022-08-19T13:28:51;23.90;1.00
15638;DHT22;26604;53.596;10.042;2022-08-19T13:31:38;23.90;1.00
15638;DHT22;26604;53.596;10.042;2022-08-19T13:34:27;23.80;1.00
15638;DHT22;26604;53.596;10.042;2022-08-19T13:36:55;23.80;1.00
15638;DHT22;26604;53.596;10.042;2022-08-19T13:39:23;23.80;1.00
15638;DHT22;26604;53.596;10.042;2022-08-19T13:41:50;23.80;1.00
15638;DHT22;26604;53.596;10.042;2022-08-19T13:44:18;23.80;1.00
15638;DHT22;26604;53.596;10.042;2022-08-19T13:46:45;23.80;1.00
15638;DHT22;26604;53.596;10.042;2022-08-19T13:49:13;23.80;1.00
15638;DHT22;26604;53.596;10.042;2022-08-19T13:51:40;23.80;1.00
15638;DHT22;26604;53.596;10.042;2022-08-19T13:54:08;23.80;1.00
15638;DHT22;26604;53.596;10.042;2022-08-19T13:56:40;23.80;1.00
15638;DHT22;26604;53.596;10.042;2022-08-19T13:59:07;23.80;1.00
15638;DHT22;26604;53.596;10.042;2022-08-19T14:01:34;23.80;1.00
15638;DHT22;26604;53.596;10.042;2022-08-19T14:04:01;23.80;1.00
15638;DHT22;26604;53.596;10.042;2022-08-19T14:06:28;23.80;1.00
15638;DHT22;26604;53.596;10.042;2022-08-19T14:08:55;23.80;1.00
15638;DHT22;26604;53.596;10.042;2022-08-19T14:11:22;23.80;1.00
15638;DHT22;26604;53.596;10.042;2022-08-19T14:13:50;23.80;1.00
15638;DHT22;26604;53.596;10.042;2022-08-19T14:16:17;23.80;1.00
15638;DHT22;26604;53.596;10.042;2022-08-19T14:18:44;23.70;1.00
15638;DHT22;26604;53.596;10.042;2022-08-19T14:21:15;23.70;1.00
15638;DHT22;26604;53.596;10.042;2022-08-19T14:23:42;23.70;1.00
15638;DHT22;26604;53.596;10.042;2022-08-19T14:26:12;23.70;1.00
15638;DHT22;26604;53.596;10.042;2022-08-19T14:28:40;23.70;1.00
15638;DHT22;26604;53.596;10.042;2022-08-19T14:31:08;23.70;1.00
15638;DHT22;26604;53.596;10.042;2022-08-19T14:33:35;23.70;1.00
15638;DHT22;26604;53.596;10.042;2022-08-19T14:36:03;23.70;1.00
15638;DHT22;26604;53.596;10.042;2022-08-19T14:38:30;23.70;1.00
15638;DHT22;26604;53.596;10.042;2022-08-19T14:41:09;23.70;1.00
15638;DHT22;26604;53.596;10.042;2022-08-19T14:43:37;23.80;1.00
15638;DHT22;26604;53.596;10.042;2022-08-19T14:46:05;23.80;1.00
15638;DHT22;26604;53.596;10.042;2022-08-19T14:48:35;23.80;1.00
15638;DHT22;26604;53.596;10.042;2022-08-19T14:51:04;23.80;1.00
15638;DHT22;26604;53.596;10.042;2022-08-19T14:53:31;23.80;1.00
15638;DHT22;26604;53.596;10.042;2022-08-19T14:56:00;23.70;1.00
15638;DHT22;26604;53.596;10.042;2022-08-19T14:58:27;23.80;1.00
15638;DHT22;26604;53.596;10.042;2022-08-19T15:00:54;23.80;1.00
15638;DHT22;26604;53.596;10.042;2022-08-19T15:03:21;23.80;1.00
15638;DHT22;26604;53.596;10.042;2022-08-19T15:05:50;23.80;1.00
15638;DHT22;26604;53.596;10.042;2022-08-19T15:08:16;23.80;1.00
15638;DHT22;26604;53.596;10.042;2022-08-19T15:10:43;23.80;1.00
15638;DHT22;26604;53.596;10.042;2022-08-19T15:13:11;23.80;1.00
15638;DHT22;26604;53.596;10.042;2022-08-19T15:15:38;23.80;1.00
15638;DHT22;26604;53.596;10.042;2022-08-19T15:18:05;23.80;1.00
15638;DHT22;26604;53.596;10.042;2022-08-19T15:20:32;23.80;1.00
15638;DHT22;26604;53.596;10.042;2022-08-19T15:23:00;23.80;1.00
15638;DHT22;26604;53.596;10.042;2022-08-19T15:25:27;23.80;1.00
15638;DHT22;26604;53.596;10.042;2022-08-19T15:27:54;23.80;1.00
15638;DHT22;26604;53.596;10.042;2022-08-19T15:30:23;23.80;1.00
15638;DHT22;26604;53.596;10.042;2022-08-19T15:32:50;23.80;1.00
15638;DHT22;26604;53.596;10.042;2022-08-19T15:35:20;23.80;1.00
15638;DHT22;26604;53.596;10.042;2022-08-19T15:37:48;23.80;1.00
15638;DHT22;26604;53.596;10.042;2022-08-19T15:40:17;23.80;1.00